Melbourne Village, Florida
Current Conditions -  °F | °C
As of 10:53 AM on Wednesday 28 Jan 2015 (Local Time) from KMLB Reporting Station
Clear Clear  
Wind Chill: 59°   Ceiling: Unl
Heat Index: 59°   Visibility: 10mi
Dew Point: 30°   Wind: 14mph
Humidity: 33%   Direction: 350°N
Pressure: 30.2"   Gusts: NA
Location:  28.0719°N, 80.7009°W
Report Text: KMLB 281553Z 35012KT 10SM CLR 15/M01 A3020 RMK AO2 SLP227 T01501011
Loading
Personal Weather Stations






























Interactive Weather Map New forecast layout! Learn more

10-Day Weather Forecast

Advertisements
Track Severe Weather on mobile